Rechercher aéroport 
image banner adimage banner adimage banner ad
image banner ad

7CL4 - Mcmwtc

Situé à Bridgeport, United States

ICAO - 7CL4, IATA -

Données fournies par Airmate  

Information générale

Coordonnées: N38°21'20" W119°31'8"
Élévation : 6779 feet MSL.
Variation magnétique : 15° East
Voir autres Aéroports à California

Données opérationnelles

Special qualification required
Heure actuelle UTC:
Heure actuelle locale:
Météo à : KTVL - Lake Tahoe ( 73 km )
METAR: KTVL 210053Z AUTO 00000KT 10SM CLR 18/M02 A3029 RMK AO2 SLP225 T01831022
TAF: KTVL 202320Z 2100/2124 06010G18KT P6SM SKC FM210100 VRB04KT P6SM SKC FM212100 04008KT P6SM SKC
Voir NOTAMs / SUP AIP / TFR affectant cet aéroport [VIEW]
Fréquences de communication: [VIEW]

Pistes:

Coordonnées de l'aéroport

Adresse: Bridgeport United States

Vue satellite de 7CL4